sensor_id;sensor_type;location;lat;lon;timestamp;temperature;humidity
1205;DHT22;592;48.764;9.174;2023-04-25T04:57:24;7.90;99.90
1205;DHT22;592;48.764;9.174;2023-04-25T04:59:51;8.10;99.90
1205;DHT22;592;48.764;9.174;2023-04-25T05:02:19;8.20;99.90
1205;DHT22;592;48.764;9.174;2023-04-25T06:05:27;8.50;99.90
1205;DHT22;592;48.764;9.174;2023-04-25T06:13:33;8.50;99.90
1205;DHT22;592;48.764;9.174;2023-04-25T08:40:14;8.30;99.90
1205;DHT22;592;48.764;9.174;2023-04-25T08:42:41;8.40;99.90
1205;DHT22;592;48.764;9.174;2023-04-25T14:34:21;12.40;99.90
1205;DHT22;592;48.764;9.174;2023-04-25T14:36:48;12.50;99.90
1205;DHT22;592;48.764;9.174;2023-04-25T15:25:53;11.20;99.90
1205;DHT22;592;48.764;9.174;2023-04-25T16:25:20;10.00;99.90
1205;DHT22;592;48.764;9.174;2023-04-25T16:27:48;10.00;99.90
1205;DHT22;592;48.764;9.174;2023-04-25T16:30:15;10.20;99.90
1205;DHT22;592;48.764;9.174;2023-04-25T16:32:42;10.00;99.90
1205;DHT22;592;48.764;9.174;2023-04-25T16:35:09;10.20;99.90
1205;DHT22;592;48.764;9.174;2023-04-25T16:37:35;10.00;99.90
1205;DHT22;592;48.764;9.174;2023-04-25T16:40:03;10.80;99.90
1205;DHT22;592;48.764;9.174;2023-04-25T16:42:34;10.10;99.90
1205;DHT22;592;48.764;9.174;2023-04-25T16:45:01;10.20;99.90
1205;DHT22;592;48.764;9.174;2023-04-25T16:47:29;10.10;99.90
1205;DHT22;592;48.764;9.174;2023-04-25T16:49:58;10.00;99.90
1205;DHT22;592;48.764;9.174;2023-04-25T16:52:25;10.20;99.90
1205;DHT22;592;48.764;9.174;2023-04-25T16:54:52;10.00;99.90
1205;DHT22;592;48.764;9.174;2023-04-25T16:57:18;9.80;99.90
1205;DHT22;592;48.764;9.174;2023-04-25T16:59:47;9.80;99.90
1205;DHT22;592;48.764;9.174;2023-04-25T17:02:14;9.80;99.90
1205;DHT22;592;48.764;9.174;2023-04-25T17:04:41;9.70;99.90
1205;DHT22;592;48.764;9.174;2023-04-25T17:07:08;9.70;99.90
1205;DHT22;592;48.764;9.174;2023-04-25T17:09:35;9.70;99.90
1205;DHT22;592;48.764;9.174;2023-04-25T17:12:02;9.80;99.90
1205;DHT22;592;48.764;9.174;2023-04-25T17:14:29;9.70;99.90
1205;DHT22;592;48.764;9.174;2023-04-25T17:16:58;9.30;99.90
1205;DHT22;592;48.764;9.174;2023-04-25T17:19:25;9.50;99.90
1205;DHT22;592;48.764;9.174;2023-04-25T17:22:08;9.30;99.90
1205;DHT22;592;48.764;9.174;2023-04-25T17:24:34;9.60;99.90
1205;DHT22;592;48.764;9.174;2023-04-25T17:27:07;9.60;99.90
1205;DHT22;592;48.764;9.174;2023-04-25T17:29:36;9.70;99.90
1205;DHT22;592;48.764;9.174;2023-04-25T17:32:04;9.50;99.90
1205;DHT22;592;48.764;9.174;2023-04-25T17:34:31;9.60;99.90
1205;DHT22;592;48.764;9.174;2023-04-25T17:36:57;9.70;99.90
1205;DHT22;592;48.764;9.174;2023-04-25T17:39:24;9.60;99.90
1205;DHT22;592;48.764;9.174;2023-04-25T17:41:51;9.60;99.90
1205;DHT22;592;48.764;9.174;2023-04-25T17:44:18;9.50;99.90
1205;DHT22;592;48.764;9.174;2023-04-25T17:46:44;9.40;99.90
1205;DHT22;592;48.764;9.174;2023-04-25T17:49:12;9.40;99.90
1205;DHT22;592;48.764;9.174;2023-04-25T17:51:39;9.20;99.90
1205;DHT22;592;48.764;9.174;2023-04-25T17:54:06;9.20;99.90
1205;DHT22;592;48.764;9.174;2023-04-25T17:56:35;9.00;99.90
1205;DHT22;592;48.764;9.174;2023-04-25T17:59:02;8.90;99.90
1205;DHT22;592;48.764;9.174;2023-04-25T18:01:29;8.70;99.90
1205;DHT22;592;48.764;9.174;2023-04-25T18:03:55;8.50;99.90
1205;DHT22;592;48.764;9.174;2023-04-25T18:06:23;8.40;99.90
1205;DHT22;592;48.764;9.174;2023-04-25T18:08:52;8.20;99.90
1205;DHT22;592;48.764;9.174;2023-04-25T18:11:21;8.00;99.90
1205;DHT22;592;48.764;9.174;2023-04-25T18:13:48;8.00;99.90
1205;DHT22;592;48.764;9.174;2023-04-25T18:16:15;8.00;99.90
1205;DHT22;592;48.764;9.174;2023-04-25T18:18:42;8.00;99.90
1205;DHT22;592;48.764;9.174;2023-04-25T18:21:11;8.20;99.90
1205;DHT22;592;48.764;9.174;2023-04-25T18:23:39;7.80;99.90
1205;DHT22;592;48.764;9.174;2023-04-25T18:26:06;7.90;99.90
1205;DHT22;592;48.764;9.174;2023-04-25T18:28:32;7.90;99.90
1205;DHT22;592;48.764;9.174;2023-04-25T18:30:59;7.50;99.90
1205;DHT22;592;48.764;9.174;2023-04-25T18:33:26;7.70;99.90
1205;DHT22;592;48.764;9.174;2023-04-25T18:35:53;7.40;99.90
1205;DHT22;592;48.764;9.174;2023-04-25T18:38:20;7.70;99.90
1205;DHT22;592;48.764;9.174;2023-04-25T18:40:49;7.70;99.90
1205;DHT22;592;48.764;9.174;2023-04-25T18:43:16;7.80;99.90
1205;DHT22;592;48.764;9.174;2023-04-25T18:45:42;8.20;99.90
1205;DHT22;592;48.764;9.174;2023-04-25T18:48:09;7.60;99.90
1205;DHT22;592;48.764;9.174;2023-04-25T18:50:36;8.00;99.90
1205;DHT22;592;48.764;9.174;2023-04-25T18:53:03;7.90;99.90
1205;DHT22;592;48.764;9.174;2023-04-25T18:55:30;8.00;99.90
1205;DHT22;592;48.764;9.174;2023-04-25T18:57:58;8.00;99.90
1205;DHT22;592;48.764;9.174;2023-04-25T19:00:24;8.00;99.90
1205;DHT22;592;48.764;9.174;2023-04-25T19:02:51;8.00;99.90
1205;DHT22;592;48.764;9.174;2023-04-25T19:05:20;8.10;99.90
1205;DHT22;592;48.764;9.174;2023-04-25T19:07:47;8.10;99.90
1205;DHT22;592;48.764;9.174;2023-04-25T19:10:14;8.20;99.90
1205;DHT22;592;48.764;9.174;2023-04-25T19:12:40;8.20;99.90
1205;DHT22;592;48.764;9.174;2023-04-25T19:15:10;8.70;99.90
1205;DHT22;592;48.764;9.174;2023-04-25T19:17:36;8.30;99.90
1205;DHT22;592;48.764;9.174;2023-04-25T19:20:04;8.30;99.90
1205;DHT22;592;48.764;9.174;2023-04-25T19:22:32;8.30;99.90
1205;DHT22;592;48.764;9.174;2023-04-25T19:24:59;8.40;99.90
1205;DHT22;592;48.764;9.174;2023-04-25T19:27:26;8.30;99.90
1205;DHT22;592;48.764;9.174;2023-04-25T19:29:52;8.40;99.90
1205;DHT22;592;48.764;9.174;2023-04-25T19:32:25;8.40;99.90
1205;DHT22;592;48.764;9.174;2023-04-25T19:34:52;8.40;99.90
1205;DHT22;592;48.764;9.174;2023-04-25T19:37:19;8.30;99.90
1205;DHT22;592;48.764;9.174;2023-04-25T19:39:46;8.90;99.90
1205;DHT22;592;48.764;9.174;2023-04-25T19:42:13;8.40;99.90
1205;DHT22;592;48.764;9.174;2023-04-25T19:44:40;8.30;99.90
1205;DHT22;592;48.764;9.174;2023-04-25T19:47:07;8.30;99.90
1205;DHT22;592;48.764;9.174;2023-04-25T19:49:37;8.10;99.90
1205;DHT22;592;48.764;9.174;2023-04-25T19:52:04;7.80;99.90
1205;DHT22;592;48.764;9.174;2023-04-25T19:54:31;8.00;99.90
1205;DHT22;592;48.764;9.174;2023-04-25T19:56:58;7.70;99.90
1205;DHT22;592;48.764;9.174;2023-04-25T19:59:28;7.60;99.90
1205;DHT22;592;48.764;9.174;2023-04-25T20:01:55;7.50;99.90
1205;DHT22;592;48.764;9.174;2023-04-25T20:04:21;7.50;99.90
1205;DHT22;592;48.764;9.174;2023-04-25T20:06:49;7.60;99.90
1205;DHT22;592;48.764;9.174;2023-04-25T20:09:17;7.80;99.90
1205;DHT22;592;48.764;9.174;2023-04-25T20:11:47;7.80;99.90
1205;DHT22;592;48.764;9.174;2023-04-25T20:14:14;7.90;99.90
1205;DHT22;592;48.764;9.174;2023-04-25T20:16:41;7.90;99.90
1205;DHT22;592;48.764;9.174;2023-04-25T20:19:07;7.70;99.90
1205;DHT22;592;48.764;9.174;2023-04-25T20:21:34;7.70;99.90
1205;DHT22;592;48.764;9.174;2023-04-25T20:24:03;7.70;99.90
1205;DHT22;592;48.764;9.174;2023-04-25T20:26:30;7.70;99.90
1205;DHT22;592;48.764;9.174;2023-04-25T20:28:58;7.90;99.90
1205;DHT22;592;48.764;9.174;2023-04-25T20:31:26;7.70;99.90
1205;DHT22;592;48.764;9.174;2023-04-25T20:33:52;7.50;99.90
1205;DHT22;592;48.764;9.174;2023-04-25T20:36:19;7.60;99.90
1205;DHT22;592;48.764;9.174;2023-04-25T20:38:46;7.60;99.90
1205;DHT22;592;48.764;9.174;2023-04-25T20:41:14;7.70;99.90
1205;DHT22;592;48.764;9.174;2023-04-25T20:43:41;7.70;99.90
1205;DHT22;592;48.764;9.174;2023-04-25T20:46:08;7.70;99.90
1205;DHT22;592;48.764;9.174;2023-04-25T20:48:34;7.80;99.90
1205;DHT22;592;48.764;9.174;2023-04-25T20:51:01;7.70;99.90
1205;DHT22;592;48.764;9.174;2023-04-25T20:53:28;7.70;99.90
1205;DHT22;592;48.764;9.174;2023-04-25T20:55:55;7.90;99.90
1205;DHT22;592;48.764;9.174;2023-04-25T20:58:23;7.80;99.90
1205;DHT22;592;48.764;9.174;2023-04-25T21:00:50;7.80;99.90
1205;DHT22;592;48.764;9.174;2023-04-25T21:03:17;7.90;99.90
1205;DHT22;592;48.764;9.174;2023-04-25T21:05:44;7.80;99.90
1205;DHT22;592;48.764;9.174;2023-04-25T21:08:12;7.80;99.90
1205;DHT22;592;48.764;9.174;2023-04-25T21:10:39;7.80;99.90
1205;DHT22;592;48.764;9.174;2023-04-25T21:13:06;7.80;99.90
1205;DHT22;592;48.764;9.174;2023-04-25T21:15:34;7.80;99.90
1205;DHT22;592;48.764;9.174;2023-04-25T21:18:01;7.80;99.90
1205;DHT22;592;48.764;9.174;2023-04-25T21:20:28;7.80;99.90
1205;DHT22;592;48.764;9.174;2023-04-25T21:22:55;7.80;99.90
1205;DHT22;592;48.764;9.174;2023-04-25T21:25:23;7.60;99.90
1205;DHT22;592;48.764;9.174;2023-04-25T21:27:55;7.70;99.90
1205;DHT22;592;48.764;9.174;2023-04-25T21:30:23;7.80;99.90
1205;DHT22;592;48.764;9.174;2023-04-25T21:32:52;7.80;99.90
1205;DHT22;592;48.764;9.174;2023-04-25T21:35:21;7.80;99.90
1205;DHT22;592;48.764;9.174;2023-04-25T21:37:48;7.90;99.90
1205;DHT22;592;48.764;9.174;2023-04-25T21:40:15;7.90;99.90
1205;DHT22;592;48.764;9.174;2023-04-25T21:42:43;8.00;99.90
1205;DHT22;592;48.764;9.174;2023-04-25T21:45:14;7.90;99.90
1205;DHT22;592;48.764;9.174;2023-04-25T21:47:41;7.90;99.90
1205;DHT22;592;48.764;9.174;2023-04-25T21:50:12;7.80;99.90
1205;DHT22;592;48.764;9.174;2023-04-25T21:52:39;7.80;99.90
1205;DHT22;592;48.764;9.174;2023-04-25T21:55:06;7.90;99.90
1205;DHT22;592;48.764;9.174;2023-04-25T21:57:33;7.90;99.90
1205;DHT22;592;48.764;9.174;2023-04-25T22:00:00;7.90;99.90
1205;DHT22;592;48.764;9.174;2023-04-25T22:02:27;7.90;99.90
1205;DHT22;592;48.764;9.174;2023-04-25T22:04:55;7.80;99.90
1205;DHT22;592;48.764;9.174;2023-04-25T22:07:23;7.90;99.90
1205;DHT22;592;48.764;9.174;2023-04-25T22:09:50;8.00;99.90
1205;DHT22;592;48.764;9.174;2023-04-25T22:12:16;7.90;99.90
1205;DHT22;592;48.764;9.174;2023-04-25T22:14:43;8.00;99.90
1205;DHT22;592;48.764;9.174;2023-04-25T22:17:11;8.00;99.90
1205;DHT22;592;48.764;9.174;2023-04-25T22:19:38;7.80;99.90
1205;DHT22;592;48.764;9.174;2023-04-25T22:22:04;7.90;99.90
1205;DHT22;592;48.764;9.174;2023-04-25T22:24:33;8.00;99.90
1205;DHT22;592;48.764;9.174;2023-04-25T22:27:00;7.90;99.90
1205;DHT22;592;48.764;9.174;2023-04-25T22:29:27;8.00;99.90
1205;DHT22;592;48.764;9.174;2023-04-25T22:31:53;8.00;99.90
1205;DHT22;592;48.764;9.174;2023-04-25T22:34:21;8.00;99.90
1205;DHT22;592;48.764;9.174;2023-04-25T22:36:47;7.90;99.90
1205;DHT22;592;48.764;9.174;2023-04-25T22:39:14;7.90;99.90
1205;DHT22;592;48.764;9.174;2023-04-25T22:41:42;7.90;99.90
1205;DHT22;592;48.764;9.174;2023-04-25T22:44:09;8.00;99.90
1205;DHT22;592;48.764;9.174;2023-04-25T22:46:36;8.00;99.90
1205;DHT22;592;48.764;9.174;2023-04-25T22:49:03;8.00;99.90
1205;DHT22;592;48.764;9.174;2023-04-25T22:51:30;8.00;99.90
1205;DHT22;592;48.764;9.174;2023-04-25T22:53:57;8.00;99.90
1205;DHT22;592;48.764;9.174;2023-04-25T22:56:25;8.00;99.90
1205;DHT22;592;48.764;9.174;2023-04-25T22:58:53;8.00;99.90
1205;DHT22;592;48.764;9.174;2023-04-25T23:01:20;8.00;99.90
1205;DHT22;592;48.764;9.174;2023-04-25T23:03:46;8.00;99.90
1205;DHT22;592;48.764;9.174;2023-04-25T23:06:13;8.00;99.90
1205;DHT22;592;48.764;9.174;2023-04-25T23:08:40;8.00;99.90
1205;DHT22;592;48.764;9.174;2023-04-25T23:11:08;8.00;99.90
1205;DHT22;592;48.764;9.174;2023-04-25T23:13:35;8.00;99.90
1205;DHT22;592;48.764;9.174;2023-04-25T23:16:06;8.00;99.90
1205;DHT22;592;48.764;9.174;2023-04-25T23:18:33;8.00;99.90
1205;DHT22;592;48.764;9.174;2023-04-25T23:21:01;8.00;99.90
1205;DHT22;592;48.764;9.174;2023-04-25T23:23:28;8.00;99.90
1205;DHT22;592;48.764;9.174;2023-04-25T23:25:56;8.00;99.90
1205;DHT22;592;48.764;9.174;2023-04-25T23:28:23;7.90;99.90
1205;DHT22;592;48.764;9.174;2023-04-25T23:30:50;8.30;99.90
1205;DHT22;592;48.764;9.174;2023-04-25T23:33:18;8.00;99.90
1205;DHT22;592;48.764;9.174;2023-04-25T23:35:45;8.00;99.90
1205;DHT22;592;48.764;9.174;2023-04-25T23:38:11;8.00;99.90
1205;DHT22;592;48.764;9.174;2023-04-25T23:40:38;7.90;99.90
1205;DHT22;592;48.764;9.174;2023-04-25T23:43:05;7.90;99.90
1205;DHT22;592;48.764;9.174;2023-04-25T23:45:32;8.00;99.90
1205;DHT22;592;48.764;9.174;2023-04-25T23:48:00;8.00;99.90
1205;DHT22;592;48.764;9.174;2023-04-25T23:50:28;7.90;99.90
1205;DHT22;592;48.764;9.174;2023-04-25T23:52:55;7.90;99.90
1205;DHT22;592;48.764;9.174;2023-04-25T23:55:22;7.80;99.90
1205;DHT22;592;48.764;9.174;2023-04-25T23:57:48;7.70;99.90
